createdAt,value
2019-05-16T00:00:21.838Z,4.74
2019-05-16T00:02:50.377Z,4.98
2019-05-16T00:05:18.891Z,5.05
2019-05-16T00:07:49.256Z,4.98
2019-05-16T00:10:18.729Z,4.82
2019-05-16T00:12:48.672Z,4.70
2019-05-16T00:15:18.201Z,4.62
2019-05-16T00:17:48.808Z,4.50
2019-05-16T00:20:19.080Z,4.41
2019-05-16T00:22:48.484Z,4.36
2019-05-16T00:25:17.931Z,4.29
2019-05-16T00:27:47.970Z,4.27
2019-05-16T00:30:18.105Z,4.25
2019-05-16T00:32:48.177Z,4.24
2019-05-16T00:35:18.276Z,4.25
2019-05-16T00:37:48.337Z,4.18
2019-05-16T00:40:18.761Z,4.10
2019-05-16T00:42:49.254Z,4.03
2019-05-16T00:45:19.789Z,3.95
2019-05-16T00:47:48.417Z,3.93
2019-05-16T00:50:18.237Z,3.92
2019-05-16T00:52:48.746Z,3.93
2019-05-16T00:55:17.957Z,3.96
2019-05-16T00:57:48.271Z,4.03
2019-05-16T01:00:18.446Z,4.03
2019-05-16T01:02:48.620Z,4.05
2019-05-16T01:05:19.122Z,4.16
2019-05-16T01:07:48.031Z,4.24
2019-05-16T01:10:18.301Z,4.37
2019-05-16T01:12:48.071Z,4.63
2019-05-16T01:15:18.377Z,4.82
2019-05-16T01:17:48.366Z,4.90
2019-05-16T01:20:19.264Z,4.89
2019-05-16T01:22:49.058Z,4.82
2019-05-16T01:25:19.513Z,4.75
2019-05-16T01:27:47.772Z,4.64
2019-05-16T01:30:18.671Z,4.53
2019-05-16T01:32:48.986Z,4.40
2019-05-16T01:35:18.866Z,4.28
2019-05-16T01:37:48.843Z,4.23
2019-05-16T01:40:18.857Z,4.28
2019-05-16T01:42:49.019Z,4.42
2019-05-16T01:45:19.606Z,4.49
2019-05-16T01:47:48.361Z,4.52
2019-05-16T01:50:18.107Z,4.51
2019-05-16T01:52:48.661Z,4.50
2019-05-16T01:55:18.664Z,4.40
2019-05-16T01:57:48.089Z,4.30
2019-05-16T02:00:23.528Z,4.26
2019-05-16T02:02:48.788Z,4.23
2019-05-16T02:05:18.774Z,4.24
2019-05-16T02:07:48.060Z,4.25
2019-05-16T02:10:18.244Z,4.26
2019-05-16T02:12:48.985Z,4.28
2019-05-16T02:15:18.247Z,4.34
2019-05-16T02:17:48.479Z,4.41
2019-05-16T02:20:17.988Z,4.41
2019-05-16T02:22:48.239Z,4.42
2019-05-16T02:25:18.572Z,4.41
2019-05-16T02:27:48.902Z,4.37
2019-05-16T02:30:21.281Z,4.34
2019-05-16T02:32:51.897Z,4.28
2019-05-16T02:35:21.058Z,4.17
2019-05-16T02:37:54.767Z,4.07
2019-05-16T02:40:23.179Z,4.01
2019-05-16T02:42:51.755Z,3.98
2019-05-16T02:45:24.138Z,3.98
2019-05-16T02:47:51.348Z,3.98
2019-05-16T02:50:22.344Z,3.93
2019-05-16T02:52:51.762Z,3.86
2019-05-16T02:55:21.606Z,3.83
2019-05-16T02:57:50.930Z,3.82
2019-05-16T03:00:22.995Z,3.80
2019-05-16T03:02:51.922Z,3.82
2019-05-16T03:05:20.951Z,3.83
2019-05-16T03:07:52.178Z,3.82
2019-05-16T03:10:20.435Z,3.83
2019-05-16T03:12:52.033Z,3.79
2019-05-16T03:15:21.732Z,3.77
2019-05-16T03:17:52.843Z,3.74
2019-05-16T03:20:24.612Z,3.72
2019-05-16T03:22:55.039Z,3.70
2019-05-16T03:25:23.433Z,3.66
2019-05-16T03:27:51.822Z,3.60
2019-05-16T03:30:23.677Z,3.56
2019-05-16T03:32:54.671Z,3.52
2019-05-16T03:35:24.592Z,3.50
2019-05-16T03:37:57.039Z,3.49
2019-05-16T03:40:25.428Z,3.45
2019-05-16T03:42:55.585Z,3.39
2019-05-16T03:45:24.061Z,3.35
2019-05-16T03:47:52.459Z,3.38
2019-05-16T03:50:21.794Z,3.36
2019-05-16T03:52:50.983Z,3.35
2019-05-16T03:55:21.404Z,3.33
2019-05-16T03:57:51.662Z,3.29
2019-05-16T04:00:22.959Z,3.22
2019-05-16T04:02:52.267Z,3.15
2019-05-16T04:05:21.265Z,3.10
2019-05-16T04:07:51.586Z,3.07
2019-05-16T04:10:21.626Z,3.07
2019-05-16T04:12:51.319Z,3.08
2019-05-16T04:15:21.463Z,3.11
2019-05-16T04:17:51.223Z,3.09
2019-05-16T04:20:21.510Z,3.11
2019-05-16T04:22:51.291Z,3.13
2019-05-16T04:25:21.624Z,3.13
2019-05-16T04:27:50.269Z,3.13
2019-05-16T04:30:21.871Z,3.15
2019-05-16T04:32:51.101Z,3.09
2019-05-16T04:35:21.506Z,3.04
2019-05-16T04:37:51.333Z,3.01
2019-05-16T04:40:22.002Z,3.03
2019-05-16T04:42:51.339Z,3.03
2019-05-16T04:45:21.060Z,3.04
2019-05-16T04:47:51.311Z,3.05
2019-05-16T04:50:21.049Z,3.05
2019-05-16T04:52:51.756Z,3.05
2019-05-16T04:55:21.009Z,3.04
2019-05-16T04:57:51.200Z,3.09
2019-05-16T05:00:21.254Z,3.27
2019-05-16T05:02:51.868Z,3.72
2019-05-16T05:05:21.530Z,4.12
2019-05-16T05:07:51.112Z,4.38
2019-05-16T05:10:20.825Z,4.47
2019-05-16T05:12:51.487Z,4.61
2019-05-16T05:15:21.340Z,4.78
2019-05-16T05:17:50.370Z,5.04
2019-05-16T05:20:21.046Z,5.26
2019-05-16T05:22:50.060Z,5.64
2019-05-16T05:25:20.399Z,5.87
2019-05-16T05:27:50.117Z,5.97
2019-05-16T05:30:19.877Z,5.87
2019-05-16T05:32:50.209Z,5.84
2019-05-16T05:35:20.661Z,5.90
2019-05-16T05:37:50.733Z,5.98
2019-05-16T05:40:20.066Z,6.09
2019-05-16T05:42:50.487Z,6.30
2019-05-16T05:45:20.115Z,6.41
2019-05-16T05:47:50.536Z,6.58
2019-05-16T05:50:20.197Z,6.92
2019-05-16T05:52:51.178Z,7.16
2019-05-16T05:55:20.091Z,7.29
2019-05-16T05:57:50.741Z,7.48
2019-05-16T06:00:21.129Z,7.70
2019-05-16T06:02:50.789Z,8.12
2019-05-16T06:05:20.151Z,8.12
2019-05-16T06:07:50.935Z,8.43
2019-05-16T06:10:19.896Z,8.75
2019-05-16T06:12:50.023Z,8.95
2019-05-16T06:15:20.332Z,9.20
2019-05-16T06:17:50.819Z,9.57
2019-05-16T06:20:20.287Z,9.96
2019-05-16T06:22:50.910Z,10.29
2019-05-16T06:25:22.582Z,10.78
2019-05-16T06:27:51.141Z,11.20
2019-05-16T06:30:21.284Z,11.53
2019-05-16T06:32:50.171Z,11.97
2019-05-16T06:35:20.532Z,12.32
2019-05-16T06:37:50.015Z,12.68
2019-05-16T06:40:20.282Z,13.17
2019-05-16T06:42:50.966Z,13.25
2019-05-16T06:45:20.506Z,13.52
2019-05-16T06:47:50.420Z,13.82
2019-05-16T06:50:20.894Z,14.09
2019-05-16T06:52:50.203Z,14.22
2019-05-16T06:55:20.504Z,14.15
2019-05-16T06:57:50.307Z,14.43
2019-05-16T07:00:21.043Z,14.45
2019-05-16T07:02:49.921Z,14.59
2019-05-16T07:05:20.834Z,14.53
2019-05-16T07:07:50.902Z,14.54
2019-05-16T07:10:20.354Z,14.41
2019-05-16T07:12:50.425Z,14.33
2019-05-16T07:15:20.634Z,14.46
2019-05-16T07:17:50.710Z,14.32
2019-05-16T07:20:20.981Z,14.32
2019-05-16T07:22:50.316Z,14.24
2019-05-16T07:25:20.791Z,13.95
2019-05-16T07:27:51.042Z,13.93
2019-05-16T07:30:20.875Z,13.88
2019-05-16T07:32:50.160Z,13.97
2019-05-16T07:35:20.474Z,13.71
2019-05-16T07:37:49.996Z,13.79
2019-05-16T07:40:25.683Z,13.60
2019-05-16T07:42:50.904Z,13.50
2019-05-16T07:45:20.398Z,13.47
2019-05-16T07:47:50.913Z,13.56
2019-05-16T07:50:20.354Z,13.95
2019-05-16T07:52:51.078Z,13.98
2019-05-16T07:55:20.847Z,13.92
2019-05-16T07:57:50.608Z,13.88
2019-05-16T08:00:21.739Z,13.79
2019-05-16T08:02:50.573Z,13.72
2019-05-16T08:05:21.007Z,13.57
2019-05-16T08:07:51.198Z,13.87
2019-05-16T08:10:36.838Z,14.10
2019-05-16T08:12:51.297Z,14.12
2019-05-16T08:15:21.357Z,14.01
2019-05-16T08:20:21.297Z,14.07
2019-05-16T08:22:50.860Z,14.22
2019-05-16T08:25:20.348Z,14.64
2019-05-16T08:27:52.016Z,14.38
2019-05-16T08:30:21.027Z,14.72
2019-05-16T08:32:52.863Z,14.86
2019-05-16T08:35:21.044Z,14.71
2019-05-16T08:40:21.474Z,14.40
2019-05-16T08:45:21.460Z,14.46
2019-05-16T08:47:52.506Z,14.34
2019-05-16T08:50:05.959Z,14.62
2019-05-16T08:50:10.991Z,13.96
2019-05-16T08:50:11.720Z,14.52
2019-05-16T08:50:21.743Z,14.25
2019-05-16T08:52:52.869Z,14.27
2019-05-16T08:55:22.569Z,14.38
2019-05-16T08:57:52.903Z,14.65
2019-05-16T09:00:22.033Z,14.62
2019-05-16T09:02:52.509Z,14.75
2019-05-16T09:05:22.688Z,14.79
2019-05-16T09:08:00.213Z,15.03
2019-05-16T09:12:51.290Z,15.59
2019-05-16T09:15:19.875Z,15.48
2019-05-16T09:17:48.261Z,15.37
2019-05-16T09:20:17.483Z,15.66
2019-05-16T09:22:48.100Z,15.70
2019-05-16T09:25:18.569Z,15.62
2019-05-16T09:27:47.142Z,15.47
2019-05-16T09:30:17.074Z,15.80
2019-05-16T09:32:47.923Z,16.07
2019-05-16T09:35:17.163Z,15.86
2019-05-16T09:37:47.324Z,15.95
2019-05-16T09:40:17.311Z,16.22
2019-05-16T09:42:47.364Z,16.48
2019-05-16T09:45:17.195Z,16.66
2019-05-16T09:47:48.427Z,16.65
2019-05-16T09:50:17.398Z,16.65
2019-05-16T09:52:47.262Z,16.74
2019-05-16T09:55:17.733Z,16.75
2019-05-16T09:57:46.855Z,16.55
2019-05-16T10:00:18.493Z,16.81
2019-05-16T10:02:47.631Z,16.89
2019-05-16T10:05:17.076Z,16.91
2019-05-16T10:07:47.073Z,16.94
2019-05-16T10:10:17.058Z,17.08
2019-05-16T10:12:45.544Z,17.31
2019-05-16T10:15:17.439Z,17.41
2019-05-16T10:17:47.721Z,17.52
2019-05-16T10:20:16.857Z,17.55
2019-05-16T10:22:46.893Z,17.55
2019-05-16T10:25:19.054Z,17.81
2019-05-16T10:27:47.503Z,18.24
2019-05-16T10:30:17.706Z,18.50
2019-05-16T10:32:47.782Z,18.50
2019-05-16T10:35:16.878Z,18.51
2019-05-16T10:37:47.066Z,18.48
2019-05-16T10:40:18.216Z,18.56
2019-05-16T10:42:47.380Z,18.40
2019-05-16T10:45:17.603Z,18.31
2019-05-16T10:47:48.102Z,18.29
2019-05-16T10:50:16.777Z,18.26
2019-05-16T10:52:48.876Z,18.55
2019-05-16T10:55:17.645Z,18.86
2019-05-16T10:57:47.520Z,18.90
2019-05-16T11:00:39.651Z,18.24
2019-05-16T11:02:47.046Z,17.68
2019-05-16T11:05:29.396Z,17.30
2019-05-16T11:07:48.522Z,17.69
2019-05-16T11:10:17.496Z,17.72
2019-05-16T11:12:51.826Z,17.60
2019-05-16T11:15:17.273Z,17.30
2019-05-16T11:17:45.865Z,17.10
2019-05-16T11:20:19.612Z,17.02
2019-05-16T11:22:47.535Z,17.31
2019-05-16T11:25:24.122Z,17.62
2019-05-16T11:27:46.882Z,17.49
2019-05-16T11:30:18.052Z,17.54
2019-05-16T11:32:47.081Z,17.46
2019-05-16T11:35:17.308Z,17.86
2019-05-16T11:37:47.224Z,18.06
2019-05-16T11:40:18.057Z,18.29
2019-05-16T11:42:48.726Z,18.38
2019-05-16T11:45:17.058Z,18.11
2019-05-16T11:47:47.039Z,17.70
2019-05-16T11:50:17.707Z,17.72
2019-05-16T11:52:47.616Z,18.00
2019-05-16T11:55:16.385Z,18.38
2019-05-16T11:57:47.335Z,18.69
2019-05-16T12:00:17.847Z,18.87
2019-05-16T12:02:47.815Z,18.37
2019-05-16T12:05:17.237Z,18.05
2019-05-16T12:07:48.378Z,18.12
2019-05-16T12:10:16.555Z,17.96
2019-05-16T12:12:45.054Z,17.98
2019-05-16T12:15:16.786Z,18.29
2019-05-16T12:17:43.738Z,18.77
2019-05-16T12:20:12.676Z,19.01
2019-05-16T12:22:41.496Z,18.94
2019-05-16T12:25:10.314Z,18.83
2019-05-16T12:27:42.341Z,18.68
2019-05-16T12:30:13.802Z,18.58
2019-05-16T12:32:40.481Z,18.31
2019-05-16T12:35:09.519Z,18.33
2019-05-16T12:37:37.938Z,18.26
2019-05-16T12:40:10.730Z,18.20
2019-05-16T12:42:39.184Z,18.14
2019-05-16T12:45:08.261Z,18.12
2019-05-16T12:47:37.562Z,18.06
2019-05-16T12:50:09.017Z,17.99
2019-05-16T12:52:38.429Z,17.99
2019-05-16T12:55:10.405Z,18.14
2019-05-16T12:57:38.815Z,18.02
2019-05-16T13:00:08.600Z,17.91
2019-05-16T13:02:38.369Z,17.86
2019-05-16T13:05:08.213Z,17.84
2019-05-16T13:07:37.667Z,17.78
2019-05-16T13:10:07.336Z,17.66
2019-05-16T13:12:37.770Z,17.73
2019-05-16T13:15:07.708Z,17.85
2019-05-16T13:17:37.377Z,17.85
2019-05-16T13:20:07.787Z,17.42
2019-05-16T13:22:38.431Z,17.27
2019-05-16T13:25:08.676Z,17.67
2019-05-16T13:27:37.610Z,17.67
2019-05-16T13:30:11.151Z,17.80
2019-05-16T13:32:39.521Z,17.92
2019-05-16T13:35:08.257Z,17.89
2019-05-16T13:37:36.663Z,17.84
2019-05-16T13:40:08.935Z,17.78
2019-05-16T13:42:37.344Z,18.10
2019-05-16T13:45:09.140Z,18.31
2019-05-16T13:47:37.911Z,18.15
2019-05-16T13:50:12.060Z,17.97
2019-05-16T13:52:39.962Z,17.88
2019-05-16T13:55:08.997Z,18.07
2019-05-16T13:57:37.723Z,18.25
2019-05-16T14:00:08.499Z,18.05
2019-05-16T14:02:37.899Z,18.05
2019-05-16T14:05:08.034Z,17.89
2019-05-16T14:07:37.701Z,18.03
2019-05-16T14:10:07.914Z,17.99
2019-05-16T14:12:36.812Z,17.78
2019-05-16T14:15:10.610Z,17.62
2019-05-16T14:17:39.001Z,17.75
2019-05-16T14:20:14.441Z,17.92
2019-05-16T14:22:38.413Z,17.90
2019-05-16T14:25:07.452Z,17.97
2019-05-16T14:27:38.248Z,18.09
2019-05-16T14:30:08.530Z,18.13
2019-05-16T14:32:41.901Z,18.23
2019-05-16T14:35:08.622Z,18.30
2019-05-16T14:37:38.098Z,18.50
2019-05-16T14:40:08.399Z,18.62
2019-05-16T14:42:38.675Z,18.47
2019-05-16T14:45:12.692Z,18.12
2019-05-16T14:47:40.001Z,18.24
2019-05-16T14:50:12.877Z,18.32
2019-05-16T14:52:38.695Z,18.41
2019-05-16T14:55:07.483Z,18.32
2019-05-16T14:57:36.884Z,18.37
2019-05-16T15:00:08.510Z,18.78
2019-05-16T15:02:38.529Z,19.23
2019-05-16T15:05:08.228Z,19.43
2019-05-16T15:07:37.445Z,19.84
2019-05-16T15:10:08.270Z,19.71
2019-05-16T15:12:37.533Z,19.99
2019-05-16T15:15:20.140Z,19.70
2019-05-16T15:17:40.103Z,19.01
2019-05-16T15:20:09.434Z,18.62
2019-05-16T15:22:38.573Z,18.13
2019-05-16T15:25:08.210Z,17.80
2019-05-16T15:27:37.270Z,17.53
2019-05-16T15:30:08.538Z,17.45
2019-05-16T15:32:38.527Z,17.09
2019-05-16T15:35:08.715Z,17.03
2019-05-16T15:37:37.691Z,17.10
2019-05-16T15:40:08.852Z,17.16
2019-05-16T15:42:37.556Z,17.13
2019-05-16T15:45:07.798Z,17.11
2019-05-16T15:47:37.436Z,17.14
2019-05-16T15:50:08.446Z,17.07
2019-05-16T15:52:38.342Z,17.03
2019-05-16T15:55:10.082Z,17.11
2019-05-16T15:57:38.866Z,17.18
2019-05-16T16:00:10.741Z,17.16
2019-05-16T16:02:39.389Z,17.11
2019-05-16T16:05:09.019Z,17.14
2019-05-16T16:07:38.213Z,17.18
2019-05-16T16:10:07.780Z,17.25
2019-05-16T16:12:37.566Z,17.22
2019-05-16T16:15:07.685Z,17.22
2019-05-16T16:17:38.093Z,17.23
2019-05-16T16:20:10.265Z,17.25
2019-05-16T16:22:37.906Z,17.28
2019-05-16T16:25:07.855Z,17.26
2019-05-16T16:27:36.315Z,17.26
2019-05-16T16:30:07.193Z,17.15
2019-05-16T16:32:38.017Z,17.11
2019-05-16T16:35:07.913Z,17.11
2019-05-16T16:37:37.854Z,17.07
2019-05-16T16:40:10.899Z,17.10
2019-05-16T16:42:37.639Z,17.15
2019-05-16T16:45:08.432Z,17.18
2019-05-16T16:47:37.773Z,17.18
2019-05-16T16:50:08.091Z,17.15
2019-05-16T16:52:37.895Z,17.19
2019-05-16T16:55:07.627Z,17.19
2019-05-16T16:57:38.420Z,17.12
2019-05-16T17:00:07.844Z,17.07
2019-05-16T17:02:37.334Z,17.03
2019-05-16T17:05:11.670Z,17.02
2019-05-16T17:07:37.717Z,17.00
2019-05-16T17:10:08.239Z,16.98
2019-05-16T17:12:41.380Z,16.93
2019-05-16T17:15:09.195Z,16.92
2019-05-16T17:17:37.820Z,16.94
2019-05-16T17:20:07.984Z,16.98
2019-05-16T17:22:37.703Z,16.96
2019-05-16T17:25:08.461Z,16.95
2019-05-16T17:27:37.652Z,16.88
2019-05-16T17:30:18.220Z,16.85
2019-05-16T17:32:46.678Z,16.83
2019-05-16T17:35:18.649Z,16.82
2019-05-16T17:37:48.211Z,16.75
2019-05-16T17:40:19.053Z,16.68
2019-05-16T17:42:47.971Z,16.61
2019-05-16T17:45:18.374Z,16.54
2019-05-16T17:47:47.002Z,16.49
2019-05-16T17:50:17.174Z,16.43
2019-05-16T17:52:47.554Z,16.36
2019-05-16T17:55:17.290Z,16.24
2019-05-16T17:57:46.136Z,16.18
2019-05-16T18:00:24.405Z,16.07
2019-05-16T18:02:46.559Z,16.02
2019-05-16T18:05:17.004Z,15.95
2019-05-16T18:07:47.393Z,15.87
2019-05-16T18:10:17.848Z,15.77
2019-05-16T18:12:47.955Z,15.63
2019-05-16T18:15:19.498Z,15.60
2019-05-16T18:17:47.888Z,15.55
2019-05-16T18:20:16.547Z,15.59
2019-05-16T18:22:47.043Z,15.55
2019-05-16T18:25:16.399Z,15.50
2019-05-16T18:27:44.901Z,15.47
2019-05-16T18:30:16.482Z,15.47
2019-05-16T18:32:44.649Z,15.40
2019-05-16T18:35:13.385Z,15.35
2019-05-16T18:37:41.805Z,15.28
2019-05-16T18:40:10.541Z,15.27
2019-05-16T18:42:38.938Z,15.27
2019-05-16T18:45:08.497Z,15.22
2019-05-16T18:47:37.891Z,15.18
2019-05-16T18:50:08.406Z,15.14
2019-05-16T18:52:37.648Z,15.07
2019-05-16T18:55:08.464Z,15.02
2019-05-16T18:57:37.753Z,14.93
2019-05-16T19:00:10.869Z,14.88
2019-05-16T19:02:38.472Z,14.86
2019-05-16T19:05:07.517Z,14.80
2019-05-16T19:07:36.912Z,14.78
2019-05-16T19:10:08.111Z,14.73
2019-05-16T19:12:37.398Z,14.67
2019-05-16T19:15:07.877Z,14.59
2019-05-16T19:17:36.413Z,14.52
2019-05-16T19:20:06.884Z,14.45
2019-05-16T19:22:37.142Z,14.38
2019-05-16T19:25:07.215Z,14.28
2019-05-16T19:27:36.962Z,14.24
2019-05-16T19:30:07.803Z,14.19
2019-05-16T19:32:37.278Z,14.15
2019-05-16T19:35:07.592Z,14.16
2019-05-16T19:37:40.403Z,14.15
2019-05-16T19:40:08.660Z,14.14
2019-05-16T19:42:37.140Z,14.08
2019-05-16T19:45:09.623Z,14.09
2019-05-16T19:47:41.134Z,13.97
2019-05-16T19:50:09.279Z,13.78
2019-05-16T19:52:37.727Z,13.60
2019-05-16T19:55:09.412Z,13.52
2019-05-16T19:57:37.796Z,13.43
2019-05-16T20:00:08.990Z,13.34
2019-05-16T20:02:37.454Z,13.30
2019-05-16T20:05:09.072Z,13.27
2019-05-16T20:07:38.092Z,13.22
2019-05-16T20:10:09.576Z,13.09
2019-05-16T20:12:38.199Z,12.93
2019-05-16T20:15:11.906Z,12.71
2019-05-16T20:17:50.855Z,12.56
2019-05-16T20:20:10.158Z,12.38
2019-05-16T20:22:38.850Z,12.29
2019-05-16T20:25:07.875Z,12.22
2019-05-16T20:27:36.928Z,12.20
2019-05-16T20:30:07.215Z,12.18
2019-05-16T20:32:37.110Z,12.21
2019-05-16T20:35:09.010Z,12.21
2019-05-16T20:37:37.751Z,12.17
2019-05-16T20:40:09.304Z,12.13
2019-05-16T20:42:36.986Z,12.06
2019-05-16T20:45:08.335Z,11.95
2019-05-16T20:47:36.732Z,11.80
2019-05-16T20:50:09.087Z,11.70
2019-05-16T20:52:38.195Z,11.72
2019-05-16T20:55:07.455Z,11.77
2019-05-16T20:57:37.613Z,11.80
2019-05-16T21:00:08.380Z,11.82
2019-05-16T21:02:37.786Z,11.86
2019-05-16T21:05:07.377Z,11.88
2019-05-16T21:07:37.604Z,11.88
2019-05-16T21:10:08.818Z,11.92
2019-05-16T21:12:40.353Z,11.91
2019-05-16T21:15:10.002Z,11.92
2019-05-16T21:17:38.376Z,11.90
2019-05-16T21:20:07.647Z,11.83
2019-05-16T21:22:37.118Z,11.79
2019-05-16T21:25:07.115Z,11.76
2019-05-16T21:27:37.839Z,11.69
2019-05-16T21:30:10.148Z,11.67
2019-05-16T21:32:38.540Z,11.64
2019-05-16T21:35:10.736Z,11.63
2019-05-16T21:37:39.154Z,11.67
2019-05-16T21:40:08.384Z,11.61
2019-05-16T21:42:36.783Z,11.56
2019-05-16T21:45:07.552Z,11.55
2019-05-16T21:47:37.007Z,11.52
2019-05-16T21:50:09.747Z,11.50
2019-05-16T21:52:38.168Z,11.47
2019-05-16T21:55:10.983Z,11.44
2019-05-16T21:57:39.390Z,11.40
2019-05-16T22:00:15.013Z,11.41
2019-05-16T22:02:43.782Z,11.44
2019-05-16T22:05:12.415Z,11.45
2019-05-16T22:07:41.014Z,11.46
2019-05-16T22:10:09.645Z,11.47
2019-05-16T22:12:38.491Z,11.45
2019-05-16T22:15:07.211Z,11.46
2019-05-16T22:17:36.686Z,11.45
2019-05-16T22:20:07.519Z,11.43
2019-05-16T22:22:38.243Z,11.41
2019-05-16T22:25:07.726Z,11.38
2019-05-16T22:27:36.260Z,11.37
2019-05-16T22:30:07.781Z,11.36
2019-05-16T22:32:36.392Z,11.33
2019-05-16T22:35:08.054Z,11.30
2019-05-16T22:37:49.434Z,11.29
2019-05-16T22:40:07.283Z,11.28
2019-05-16T22:42:37.469Z,11.25
2019-05-16T22:45:08.971Z,11.21
2019-05-16T22:47:37.743Z,11.14
2019-05-16T22:50:09.632Z,11.10
2019-05-16T22:52:38.291Z,11.10
2019-05-16T22:55:08.025Z,11.08
2019-05-16T22:57:36.432Z,11.10
2019-05-16T23:00:11.577Z,11.09
2019-05-16T23:02:39.988Z,11.09
2019-05-16T23:05:08.711Z,11.07
2019-05-16T23:07:37.132Z,11.02
2019-05-16T23:10:07.330Z,11.00
2019-05-16T23:12:37.186Z,11.01
2019-05-16T23:15:06.730Z,10.97
2019-05-16T23:17:37.336Z,10.95
2019-05-16T23:20:07.242Z,10.93
2019-05-16T23:22:36.707Z,10.97
2019-05-16T23:25:06.802Z,10.99
2019-05-16T23:27:36.754Z,11.02
2019-05-16T23:30:08.714Z,11.03
2019-05-16T23:32:37.111Z,11.04
2019-05-16T23:35:07.443Z,11.01
2019-05-16T23:37:37.074Z,11.01
2019-05-16T23:40:06.436Z,10.98
2019-05-16T23:42:36.921Z,10.93
2019-05-16T23:45:09.861Z,10.91
2019-05-16T23:47:38.258Z,10.92
2019-05-16T23:50:08.134Z,10.91
2019-05-16T23:52:36.983Z,10.91
2019-05-16T23:55:08.569Z,10.92
2019-05-16T23:57:37.554Z,10.95
